sensor_id;sensor_type;location;lat;lon;timestamp;P1;durP1;ratioP1;P2;durP2;ratioP2
21567;SDS011;10944;42.590;12.630;2023-02-10T00:01:24;42.07;;;21.00;;
21567;SDS011;10944;42.590;12.630;2023-02-10T00:03:51;43.70;;;21.23;;
21567;SDS011;10944;42.590;12.630;2023-02-10T00:06:18;42.37;;;20.53;;
21567;SDS011;10944;42.590;12.630;2023-02-10T00:08:49;46.27;;;21.80;;
21567;SDS011;10944;42.590;12.630;2023-02-10T00:11:16;42.77;;;21.03;;
21567;SDS011;10944;42.590;12.630;2023-02-10T00:13:42;44.40;;;20.70;;
21567;SDS011;10944;42.590;12.630;2023-02-10T00:16:10;39.97;;;20.30;;
21567;SDS011;10944;42.590;12.630;2023-02-10T00:18:37;44.40;;;21.30;;
21567;SDS011;10944;42.590;12.630;2023-02-10T00:23:33;41.33;;;21.00;;
21567;SDS011;10944;42.590;12.630;2023-02-10T00:26:01;43.97;;;21.33;;
21567;SDS011;10944;42.590;12.630;2023-02-10T00:28:31;43.33;;;20.33;;
21567;SDS011;10944;42.590;12.630;2023-02-10T00:30:58;43.87;;;20.90;;
21567;SDS011;10944;42.590;12.630;2023-02-10T00:33:24;44.43;;;22.13;;
21567;SDS011;10944;42.590;12.630;2023-02-10T00:35:50;44.53;;;21.00;;
21567;SDS011;10944;42.590;12.630;2023-02-10T00:38:15;46.07;;;21.43;;
21567;SDS011;10944;42.590;12.630;2023-02-10T00:40:42;48.93;;;22.03;;
21567;SDS011;10944;42.590;12.630;2023-02-10T00:43:08;46.53;;;21.70;;
21567;SDS011;10944;42.590;12.630;2023-02-10T00:45:33;43.13;;;21.70;;
21567;SDS011;10944;42.590;12.630;2023-02-10T00:47:59;44.00;;;21.70;;
21567;SDS011;10944;42.590;12.630;2023-02-10T00:50:25;45.23;;;21.50;;
21567;SDS011;10944;42.590;12.630;2023-02-10T00:52:50;49.20;;;22.20;;
21567;SDS011;10944;42.590;12.630;2023-02-10T00:55:16;45.40;;;21.40;;
21567;SDS011;10944;42.590;12.630;2023-02-10T00:57:42;45.03;;;21.53;;
21567;SDS011;10944;42.590;12.630;2023-02-10T01:00:07;44.33;;;21.83;;
21567;SDS011;10944;42.590;12.630;2023-02-10T01:02:33;46.23;;;20.43;;
21567;SDS011;10944;42.590;12.630;2023-02-10T01:04:59;45.77;;;20.60;;
21567;SDS011;10944;42.590;12.630;2023-02-10T01:07:25;45.70;;;22.40;;
21567;SDS011;10944;42.590;12.630;2023-02-10T01:09:51;44.63;;;21.13;;
21567;SDS011;10944;42.590;12.630;2023-02-10T01:12:16;53.53;;;22.87;;
21567;SDS011;10944;42.590;12.630;2023-02-10T01:14:42;47.53;;;21.87;;
21567;SDS011;10944;42.590;12.630;2023-02-10T01:17:08;48.40;;;22.33;;
21567;SDS011;10944;42.590;12.630;2023-02-10T01:19:33;45.07;;;22.70;;
21567;SDS011;10944;42.590;12.630;2023-02-10T01:21:59;48.67;;;22.17;;
21567;SDS011;10944;42.590;12.630;2023-02-10T01:24:25;43.33;;;21.13;;
21567;SDS011;10944;42.590;12.630;2023-02-10T01:26:50;47.47;;;21.50;;
21567;SDS011;10944;42.590;12.630;2023-02-10T01:29:16;48.97;;;22.57;;
21567;SDS011;10944;42.590;12.630;2023-02-10T01:31:42;48.97;;;22.70;;
21567;SDS011;10944;42.590;12.630;2023-02-10T01:34:08;46.40;;;21.97;;
21567;SDS011;10944;42.590;12.630;2023-02-10T01:36:34;48.53;;;22.10;;
21567;SDS011;10944;42.590;12.630;2023-02-10T01:39:00;45.30;;;20.70;;
21567;SDS011;10944;42.590;12.630;2023-02-10T01:41:26;45.77;;;21.30;;
21567;SDS011;10944;42.590;12.630;2023-02-10T01:44:00;43.57;;;21.27;;
21567;SDS011;10944;42.590;12.630;2023-02-10T01:46:28;43.20;;;20.57;;
21567;SDS011;10944;42.590;12.630;2023-02-10T01:48:55;45.00;;;20.70;;
21567;SDS011;10944;42.590;12.630;2023-02-10T01:51:25;45.03;;;20.47;;
21567;SDS011;10944;42.590;12.630;2023-02-10T01:53:59;41.70;;;20.27;;
21567;SDS011;10944;42.590;12.630;2023-02-10T01:56:25;46.07;;;20.40;;
21567;SDS011;10944;42.590;12.630;2023-02-10T01:58:51;45.87;;;20.27;;
21567;SDS011;10944;42.590;12.630;2023-02-10T02:01:17;40.87;;;19.73;;
21567;SDS011;10944;42.590;12.630;2023-02-10T02:03:43;42.73;;;19.03;;
21567;SDS011;10944;42.590;12.630;2023-02-10T02:06:09;41.40;;;19.83;;
21567;SDS011;10944;42.590;12.630;2023-02-10T02:08:35;43.80;;;20.00;;
21567;SDS011;10944;42.590;12.630;2023-02-10T02:16:27;42.90;;;20.03;;
21567;SDS011;10944;42.590;12.630;2023-02-10T02:24:45;54.67;;;23.10;;
21567;SDS011;10944;42.590;12.630;2023-02-10T02:30:36;45.97;;;20.57;;
21567;SDS011;10944;42.590;12.630;2023-02-10T02:36:11;46.63;;;22.27;;
21567;SDS011;10944;42.590;12.630;2023-02-10T02:38:41;43.97;;;20.73;;
21567;SDS011;10944;42.590;12.630;2023-02-10T02:41:08;43.97;;;21.17;;
21567;SDS011;10944;42.590;12.630;2023-02-10T02:43:34;44.13;;;21.20;;
21567;SDS011;10944;42.590;12.630;2023-02-10T02:46:05;43.40;;;20.87;;
21567;SDS011;10944;42.590;12.630;2023-02-10T02:51:48;45.17;;;20.20;;
21567;SDS011;10944;42.590;12.630;2023-02-10T02:57:24;46.97;;;20.57;;
21567;SDS011;10944;42.590;12.630;2023-02-10T03:00:09;43.93;;;20.23;;
21567;SDS011;10944;42.590;12.630;2023-02-10T03:02:54;44.60;;;20.13;;
21567;SDS011;10944;42.590;12.630;2023-02-10T03:05:21;42.23;;;19.27;;
21567;SDS011;10944;42.590;12.630;2023-02-10T03:07:53;44.07;;;20.37;;
21567;SDS011;10944;42.590;12.630;2023-02-10T03:10:19;44.57;;;20.50;;
21567;SDS011;10944;42.590;12.630;2023-02-10T03:12:46;41.67;;;18.60;;
21567;SDS011;10944;42.590;12.630;2023-02-10T03:15:12;41.93;;;18.70;;
21567;SDS011;10944;42.590;12.630;2023-02-10T03:17:38;39.93;;;19.13;;
21567;SDS011;10944;42.590;12.630;2023-02-10T03:20:06;43.03;;;19.20;;
21567;SDS011;10944;42.590;12.630;2023-02-10T03:22:32;46.30;;;20.60;;
21567;SDS011;10944;42.590;12.630;2023-02-10T03:24:57;42.07;;;20.20;;
21567;SDS011;10944;42.590;12.630;2023-02-10T03:27:23;42.97;;;20.17;;
21567;SDS011;10944;42.590;12.630;2023-02-10T03:29:49;40.50;;;20.20;;
21567;SDS011;10944;42.590;12.630;2023-02-10T03:32:17;41.03;;;19.27;;
21567;SDS011;10944;42.590;12.630;2023-02-10T03:34:43;43.57;;;20.60;;
21567;SDS011;10944;42.590;12.630;2023-02-10T03:37:09;43.20;;;19.63;;
21567;SDS011;10944;42.590;12.630;2023-02-10T03:39:35;42.93;;;20.30;;
21567;SDS011;10944;42.590;12.630;2023-02-10T03:42:01;44.47;;;20.40;;
21567;SDS011;10944;42.590;12.630;2023-02-10T03:44:27;43.63;;;19.83;;
21567;SDS011;10944;42.590;12.630;2023-02-10T03:46:53;45.03;;;20.33;;
21567;SDS011;10944;42.590;12.630;2023-02-10T03:49:18;44.60;;;20.03;;
21567;SDS011;10944;42.590;12.630;2023-02-10T03:51:44;41.07;;;18.70;;
21567;SDS011;10944;42.590;12.630;2023-02-10T03:54:09;45.83;;;20.87;;
21567;SDS011;10944;42.590;12.630;2023-02-10T03:56:35;46.63;;;21.00;;
21567;SDS011;10944;42.590;12.630;2023-02-10T03:59:01;46.27;;;20.70;;
21567;SDS011;10944;42.590;12.630;2023-02-10T04:01:28;43.50;;;20.07;;
21567;SDS011;10944;42.590;12.630;2023-02-10T04:03:54;44.77;;;21.20;;
21567;SDS011;10944;42.590;12.630;2023-02-10T04:06:19;46.83;;;20.53;;
21567;SDS011;10944;42.590;12.630;2023-02-10T04:08:46;51.57;;;20.83;;
21567;SDS011;10944;42.590;12.630;2023-02-10T04:11:12;46.10;;;20.87;;
21567;SDS011;10944;42.590;12.630;2023-02-10T04:13:38;43.57;;;19.77;;
21567;SDS011;10944;42.590;12.630;2023-02-10T04:16:12;40.53;;;19.37;;
21567;SDS011;10944;42.590;12.630;2023-02-10T04:18:39;42.37;;;19.73;;
21567;SDS011;10944;42.590;12.630;2023-02-10T04:21:06;43.50;;;19.50;;
21567;SDS011;10944;42.590;12.630;2023-02-10T04:23:34;41.63;;;20.00;;
21567;SDS011;10944;42.590;12.630;2023-02-10T04:26:00;42.47;;;20.17;;
21567;SDS011;10944;42.590;12.630;2023-02-10T04:28:27;42.80;;;20.00;;
21567;SDS011;10944;42.590;12.630;2023-02-10T04:30:53;44.20;;;19.87;;
21567;SDS011;10944;42.590;12.630;2023-02-10T04:33:20;44.63;;;20.60;;
21567;SDS011;10944;42.590;12.630;2023-02-10T04:35:47;46.33;;;21.20;;
21567;SDS011;10944;42.590;12.630;2023-02-10T04:38:13;41.90;;;20.63;;
21567;SDS011;10944;42.590;12.630;2023-02-10T04:40:39;45.23;;;20.50;;
21567;SDS011;10944;42.590;12.630;2023-02-10T04:43:07;43.07;;;20.63;;
21567;SDS011;10944;42.590;12.630;2023-02-10T04:45:32;45.33;;;21.03;;
21567;SDS011;10944;42.590;12.630;2023-02-10T04:47:58;43.07;;;19.90;;
21567;SDS011;10944;42.590;12.630;2023-02-10T04:50:24;44.83;;;19.90;;
21567;SDS011;10944;42.590;12.630;2023-02-10T04:52:50;46.13;;;20.43;;
21567;SDS011;10944;42.590;12.630;2023-02-10T04:55:16;42.17;;;18.13;;
21567;SDS011;10944;42.590;12.630;2023-02-10T04:57:42;44.47;;;20.43;;
21567;SDS011;10944;42.590;12.630;2023-02-10T05:00:07;44.07;;;20.93;;
21567;SDS011;10944;42.590;12.630;2023-02-10T05:02:33;43.90;;;19.43;;
21567;SDS011;10944;42.590;12.630;2023-02-10T05:04:59;45.03;;;19.47;;
21567;SDS011;10944;42.590;12.630;2023-02-10T05:07:25;49.20;;;20.60;;
21567;SDS011;10944;42.590;12.630;2023-02-10T05:09:51;45.97;;;21.20;;
21567;SDS011;10944;42.590;12.630;2023-02-10T05:12:16;41.63;;;19.90;;
21567;SDS011;10944;42.590;12.630;2023-02-10T05:14:42;45.17;;;19.83;;
21567;SDS011;10944;42.590;12.630;2023-02-10T05:17:08;45.70;;;20.00;;
21567;SDS011;10944;42.590;12.630;2023-02-10T05:19:33;44.67;;;20.40;;
21567;SDS011;10944;42.590;12.630;2023-02-10T05:21:59;46.40;;;21.23;;
21567;SDS011;10944;42.590;12.630;2023-02-10T05:24:25;46.20;;;20.60;;
21567;SDS011;10944;42.590;12.630;2023-02-10T05:26:51;46.80;;;21.53;;
21567;SDS011;10944;42.590;12.630;2023-02-10T05:29:16;47.57;;;20.43;;
21567;SDS011;10944;42.590;12.630;2023-02-10T05:31:42;46.47;;;20.50;;
21567;SDS011;10944;42.590;12.630;2023-02-10T05:34:08;45.80;;;21.73;;
21567;SDS011;10944;42.590;12.630;2023-02-10T05:36:33;43.83;;;19.93;;
21567;SDS011;10944;42.590;12.630;2023-02-10T05:38:59;46.13;;;20.53;;
21567;SDS011;10944;42.590;12.630;2023-02-10T05:41:44;45.33;;;20.30;;
21567;SDS011;10944;42.590;12.630;2023-02-10T05:44:09;50.13;;;21.17;;
21567;SDS011;10944;42.590;12.630;2023-02-10T05:46:35;48.50;;;21.17;;
21567;SDS011;10944;42.590;12.630;2023-02-10T05:49:01;43.90;;;21.17;;
21567;SDS011;10944;42.590;12.630;2023-02-10T05:51:26;45.87;;;21.20;;
21567;SDS011;10944;42.590;12.630;2023-02-10T05:53:52;45.93;;;19.87;;
21567;SDS011;10944;42.590;12.630;2023-02-10T05:56:19;47.70;;;21.00;;
21567;SDS011;10944;42.590;12.630;2023-02-10T05:58:44;46.40;;;21.43;;
21567;SDS011;10944;42.590;12.630;2023-02-10T06:01:10;47.00;;;20.87;;
21567;SDS011;10944;42.590;12.630;2023-02-10T06:03:36;48.13;;;20.47;;
21567;SDS011;10944;42.590;12.630;2023-02-10T06:06:02;45.73;;;20.73;;
21567;SDS011;10944;42.590;12.630;2023-02-10T06:08:28;47.83;;;20.70;;
21567;SDS011;10944;42.590;12.630;2023-02-10T06:10:54;50.43;;;21.37;;
21567;SDS011;10944;42.590;12.630;2023-02-10T06:13:20;44.60;;;19.93;;
21567;SDS011;10944;42.590;12.630;2023-02-10T06:15:45;47.90;;;21.90;;
21567;SDS011;10944;42.590;12.630;2023-02-10T06:18:11;47.17;;;20.80;;
21567;SDS011;10944;42.590;12.630;2023-02-10T06:20:37;52.13;;;21.67;;
21567;SDS011;10944;42.590;12.630;2023-02-10T06:23:02;50.83;;;21.10;;
21567;SDS011;10944;42.590;12.630;2023-02-10T06:25:28;47.40;;;20.97;;
21567;SDS011;10944;42.590;12.630;2023-02-10T06:27:54;48.40;;;20.67;;
21567;SDS011;10944;42.590;12.630;2023-02-10T06:30:19;44.30;;;21.13;;
21567;SDS011;10944;42.590;12.630;2023-02-10T06:32:45;46.17;;;21.27;;
21567;SDS011;10944;42.590;12.630;2023-02-10T06:35:11;43.77;;;21.40;;
21567;SDS011;10944;42.590;12.630;2023-02-10T06:37:37;46.60;;;21.20;;
21567;SDS011;10944;42.590;12.630;2023-02-10T06:40:03;45.03;;;20.73;;
21567;SDS011;10944;42.590;12.630;2023-02-10T06:42:30;47.57;;;21.77;;
21567;SDS011;10944;42.590;12.630;2023-02-10T06:44:56;43.77;;;21.40;;
21567;SDS011;10944;42.590;12.630;2023-02-10T06:47:22;45.60;;;20.80;;
21567;SDS011;10944;42.590;12.630;2023-02-10T06:49:47;43.87;;;20.40;;
21567;SDS011;10944;42.590;12.630;2023-02-10T06:52:13;45.83;;;20.33;;
21567;SDS011;10944;42.590;12.630;2023-02-10T06:54:39;46.67;;;20.63;;
21567;SDS011;10944;42.590;12.630;2023-02-10T06:57:05;44.37;;;20.47;;
21567;SDS011;10944;42.590;12.630;2023-02-10T06:59:33;45.90;;;22.07;;
21567;SDS011;10944;42.590;12.630;2023-02-10T07:01:59;46.97;;;22.30;;
21567;SDS011;10944;42.590;12.630;2023-02-10T07:04:30;47.67;;;22.17;;
21567;SDS011;10944;42.590;12.630;2023-02-10T07:06:56;50.83;;;22.03;;
21567;SDS011;10944;42.590;12.630;2023-02-10T07:09:23;50.73;;;21.97;;
21567;SDS011;10944;42.590;12.630;2023-02-10T07:11:49;49.70;;;22.83;;
21567;SDS011;10944;42.590;12.630;2023-02-10T07:14:15;48.90;;;22.50;;
21567;SDS011;10944;42.590;12.630;2023-02-10T07:16:41;57.63;;;30.25;;
21567;SDS011;10944;42.590;12.630;2023-02-10T07:19:07;62.40;;;26.57;;
21567;SDS011;10944;42.590;12.630;2023-02-10T07:21:32;63.33;;;29.63;;
21567;SDS011;10944;42.590;12.630;2023-02-10T07:23:58;59.73;;;27.87;;
21567;SDS011;10944;42.590;12.630;2023-02-10T07:26:26;58.53;;;27.80;;
21567;SDS011;10944;42.590;12.630;2023-02-10T07:28:52;57.47;;;27.27;;
21567;SDS011;10944;42.590;12.630;2023-02-10T07:31:18;62.50;;;26.53;;
21567;SDS011;10944;42.590;12.630;2023-02-10T07:33:43;60.23;;;29.23;;
21567;SDS011;10944;42.590;12.630;2023-02-10T07:36:09;58.00;;;27.03;;
21567;SDS011;10944;42.590;12.630;2023-02-10T07:38:35;60.97;;;28.07;;
21567;SDS011;10944;42.590;12.630;2023-02-10T07:41:02;57.53;;;27.63;;
21567;SDS011;10944;42.590;12.630;2023-02-10T07:43:29;60.97;;;28.27;;
21567;SDS011;10944;42.590;12.630;2023-02-10T07:45:55;60.17;;;28.60;;
21567;SDS011;10944;42.590;12.630;2023-02-10T07:48:21;59.30;;;26.90;;
21567;SDS011;10944;42.590;12.630;2023-02-10T07:50:47;54.70;;;27.27;;
21567;SDS011;10944;42.590;12.630;2023-02-10T07:53:12;56.23;;;24.33;;
21567;SDS011;10944;42.590;12.630;2023-02-10T07:55:38;50.13;;;23.33;;
21567;SDS011;10944;42.590;12.630;2023-02-10T07:58:04;44.17;;;21.53;;
21567;SDS011;10944;42.590;12.630;2023-02-10T08:00:31;46.00;;;22.27;;
21567;SDS011;10944;42.590;12.630;2023-02-10T08:02:56;48.83;;;23.53;;
21567;SDS011;10944;42.590;12.630;2023-02-10T08:05:22;53.10;;;25.83;;
21567;SDS011;10944;42.590;12.630;2023-02-10T08:07:48;52.77;;;26.23;;
21567;SDS011;10944;42.590;12.630;2023-02-10T08:10:14;55.17;;;25.77;;
21567;SDS011;10944;42.590;12.630;2023-02-10T08:12:40;58.53;;;25.67;;
21567;SDS011;10944;42.590;12.630;2023-02-10T08:15:06;50.97;;;25.17;;
21567;SDS011;10944;42.590;12.630;2023-02-10T08:17:32;50.67;;;25.33;;
21567;SDS011;10944;42.590;12.630;2023-02-10T08:19:58;52.97;;;25.33;;
21567;SDS011;10944;42.590;12.630;2023-02-10T08:22:24;55.77;;;25.80;;
21567;SDS011;10944;42.590;12.630;2023-02-10T08:24:49;51.70;;;26.03;;
21567;SDS011;10944;42.590;12.630;2023-02-10T08:27:15;49.67;;;25.30;;
21567;SDS011;10944;42.590;12.630;2023-02-10T08:29:41;49.87;;;24.97;;
21567;SDS011;10944;42.590;12.630;2023-02-10T08:32:07;53.33;;;24.70;;
21567;SDS011;10944;42.590;12.630;2023-02-10T08:34:32;55.00;;;24.97;;
21567;SDS011;10944;42.590;12.630;2023-02-10T08:36:59;52.50;;;26.83;;
21567;SDS011;10944;42.590;12.630;2023-02-10T08:39:26;54.67;;;27.37;;
21567;SDS011;10944;42.590;12.630;2023-02-10T08:41:53;53.33;;;26.97;;
21567;SDS011;10944;42.590;12.630;2023-02-10T08:44:18;56.37;;;27.60;;
21567;SDS011;10944;42.590;12.630;2023-02-10T08:46:44;57.07;;;29.03;;
21567;SDS011;10944;42.590;12.630;2023-02-10T08:49:10;56.30;;;29.73;;
21567;SDS011;10944;42.590;12.630;2023-02-10T08:51:35;62.13;;;30.63;;
21567;SDS011;10944;42.590;12.630;2023-02-10T08:54:03;61.63;;;30.07;;
21567;SDS011;10944;42.590;12.630;2023-02-10T08:56:30;60.93;;;29.50;;
21567;SDS011;10944;42.590;12.630;2023-02-10T08:58:56;62.90;;;30.43;;
21567;SDS011;10944;42.590;12.630;2023-02-10T09:01:22;56.47;;;29.17;;
21567;SDS011;10944;42.590;12.630;2023-02-10T09:03:53;59.00;;;27.93;;
21567;SDS011;10944;42.590;12.630;2023-02-10T09:06:24;58.53;;;27.80;;
21567;SDS011;10944;42.590;12.630;2023-02-10T09:09:08;53.67;;;27.80;;
21567;SDS011;10944;42.590;12.630;2023-02-10T09:11:35;53.00;;;28.37;;
21567;SDS011;10944;42.590;12.630;2023-02-10T09:14:02;55.43;;;27.50;;
21567;SDS011;10944;42.590;12.630;2023-02-10T09:16:27;51.70;;;26.53;;
21567;SDS011;10944;42.590;12.630;2023-02-10T09:18:53;52.10;;;27.63;;
21567;SDS011;10944;42.590;12.630;2023-02-10T09:21:19;52.77;;;26.67;;
21567;SDS011;10944;42.590;12.630;2023-02-10T09:23:45;55.77;;;27.50;;
21567;SDS011;10944;42.590;12.630;2023-02-10T09:26:11;51.47;;;26.70;;
21567;SDS011;10944;42.590;12.630;2023-02-10T09:28:37;55.27;;;27.47;;
21567;SDS011;10944;42.590;12.630;2023-02-10T09:31:07;49.47;;;26.60;;
21567;SDS011;10944;42.590;12.630;2023-02-10T09:33:34;50.83;;;26.80;;
21567;SDS011;10944;42.590;12.630;2023-02-10T09:36:03;54.00;;;26.93;;
21567;SDS011;10944;42.590;12.630;2023-02-10T09:38:30;50.57;;;25.60;;
21567;SDS011;10944;42.590;12.630;2023-02-10T09:46:16;58.40;;;26.50;;
21567;SDS011;10944;42.590;12.630;2023-02-10T09:54:53;49.23;;;25.00;;
21567;SDS011;10944;42.590;12.630;2023-02-10T09:57:21;52.67;;;26.57;;
21567;SDS011;10944;42.590;12.630;2023-02-10T09:59:51;50.93;;;25.57;;
21567;SDS011;10944;42.590;12.630;2023-02-10T10:04:58;48.93;;;24.63;;
21567;SDS011;10944;42.590;12.630;2023-02-10T10:07:34;51.10;;;25.90;;
21567;SDS011;10944;42.590;12.630;2023-02-10T10:12:51;50.03;;;25.50;;
21567;SDS011;10944;42.590;12.630;2023-02-10T10:15:18;44.53;;;24.00;;
21567;SDS011;10944;42.590;12.630;2023-02-10T10:17:54;45.87;;;24.13;;
21567;SDS011;10944;42.590;12.630;2023-02-10T10:20:46;44.67;;;23.23;;
21567;SDS011;10944;42.590;12.630;2023-02-10T10:31:42;46.10;;;23.27;;
21567;SDS011;10944;42.590;12.630;2023-02-10T10:34:12;44.97;;;24.10;;
21567;SDS011;10944;42.590;12.630;2023-02-10T10:36:42;47.20;;;23.37;;
21567;SDS011;10944;42.590;12.630;2023-02-10T10:41:49;45.10;;;23.33;;
21567;SDS011;10944;42.590;12.630;2023-02-10T10:44:16;41.03;;;21.73;;
21567;SDS011;10944;42.590;12.630;2023-02-10T10:46:49;41.40;;;21.80;;
21567;SDS011;10944;42.590;12.630;2023-02-10T10:49:34;41.80;;;22.77;;
21567;SDS011;10944;42.590;12.630;2023-02-10T10:52:01;41.80;;;21.10;;
21567;SDS011;10944;42.590;12.630;2023-02-10T10:54:27;43.10;;;22.67;;
21567;SDS011;10944;42.590;12.630;2023-02-10T10:56:54;225.17;;;76.90;;
21567;SDS011;10944;42.590;12.630;2023-02-10T10:59:27;93.90;;;40.00;;
21567;SDS011;10944;42.590;12.630;2023-02-10T11:01:54;57.27;;;28.10;;
21567;SDS011;10944;42.590;12.630;2023-02-10T11:04:21;46.00;;;23.30;;
21567;SDS011;10944;42.590;12.630;2023-02-10T11:06:57;43.73;;;22.43;;
21567;SDS011;10944;42.590;12.630;2023-02-10T11:09:28;62.90;;;30.20;;
21567;SDS011;10944;42.590;12.630;2023-02-10T11:12:06;46.87;;;23.53;;
21567;SDS011;10944;42.590;12.630;2023-02-10T11:14:42;42.80;;;22.30;;
21567;SDS011;10944;42.590;12.630;2023-02-10T11:20:02;36.57;;;21.10;;
21567;SDS011;10944;42.590;12.630;2023-02-10T11:22:31;42.00;;;22.57;;
21567;SDS011;10944;42.590;12.630;2023-02-10T11:25:01;40.37;;;21.90;;
21567;SDS011;10944;42.590;12.630;2023-02-10T11:27:50;40.13;;;22.17;;
21567;SDS011;10944;42.590;12.630;2023-02-10T11:30:26;45.23;;;23.00;;
21567;SDS011;10944;42.590;12.630;2023-02-10T11:32:52;32.60;;;17.53;;
21567;SDS011;10944;42.590;12.630;2023-02-10T11:35:18;28.80;;;17.07;;
21567;SDS011;10944;42.590;12.630;2023-02-10T11:37:43;30.03;;;17.20;;
21567;SDS011;10944;42.590;12.630;2023-02-10T11:40:20;29.30;;;17.27;;
21567;SDS011;10944;42.590;12.630;2023-02-10T11:42:50;28.10;;;16.33;;
21567;SDS011;10944;42.590;12.630;2023-02-10T11:45:22;31.90;;;15.97;;
21567;SDS011;10944;42.590;12.630;2023-02-10T11:48:03;29.30;;;16.23;;
21567;SDS011;10944;42.590;12.630;2023-02-10T11:50:37;28.37;;;15.90;;
21567;SDS011;10944;42.590;12.630;2023-02-10T11:53:03;28.20;;;16.57;;
21567;SDS011;10944;42.590;12.630;2023-02-10T11:55:45;28.77;;;15.73;;
21567;SDS011;10944;42.590;12.630;2023-02-10T11:58:43;26.20;;;15.40;;
21567;SDS011;10944;42.590;12.630;2023-02-10T12:01:41;29.07;;;16.50;;
21567;SDS011;10944;42.590;12.630;2023-02-10T12:07:25;29.83;;;15.50;;
21567;SDS011;10944;42.590;12.630;2023-02-10T12:21:08;24.03;;;15.10;;
21567;SDS011;10944;42.590;12.630;2023-02-10T12:32:41;26.90;;;15.00;;
21567;SDS011;10944;42.590;12.630;2023-02-10T12:46:14;24.08;;;14.23;;
21567;SDS011;10944;42.590;12.630;2023-02-10T12:54:12;26.13;;;14.35;;
21567;SDS011;10944;42.590;12.630;2023-02-10T12:56:56;24.85;;;13.30;;
21567;SDS011;10944;42.590;12.630;2023-02-10T12:59:29;23.85;;;13.18;;
21567;SDS011;10944;42.590;12.630;2023-02-10T13:02:06;23.53;;;13.60;;
21567;SDS011;10944;42.590;12.630;2023-02-10T13:04:41;22.57;;;13.97;;
21567;SDS011;10944;42.590;12.630;2023-02-10T13:12:24;22.88;;;13.13;;
21567;SDS011;10944;42.590;12.630;2023-02-10T13:15:06;21.67;;;12.70;;
21567;SDS011;10944;42.590;12.630;2023-02-10T13:17:41;23.25;;;13.00;;
21567;SDS011;10944;42.590;12.630;2023-02-10T13:20:24;20.10;;;12.13;;
21567;SDS011;10944;42.590;12.630;2023-02-10T13:28:41;19.10;;;11.33;;
21567;SDS011;10944;42.590;12.630;2023-02-10T13:37:07;19.27;;;11.47;;
21567;SDS011;10944;42.590;12.630;2023-02-10T13:39:48;20.40;;;10.67;;
21567;SDS011;10944;42.590;12.630;2023-02-10T13:44:57;20.13;;;11.13;;
21567;SDS011;10944;42.590;12.630;2023-02-10T13:57:56;18.17;;;10.77;;
21567;SDS011;10944;42.590;12.630;2023-02-10T14:00:45;18.90;;;11.13;;
21567;SDS011;10944;42.590;12.630;2023-02-10T14:13:27;19.02;;;11.02;;
21567;SDS011;10944;42.590;12.630;2023-02-10T14:15:57;20.08;;;11.43;;
21567;SDS011;10944;42.590;12.630;2023-02-10T14:18:25;19.08;;;11.57;;
21567;SDS011;10944;42.590;12.630;2023-02-10T14:20:56;22.67;;;12.50;;
21567;SDS011;10944;42.590;12.630;2023-02-10T14:23:26;20.70;;;11.70;;
21567;SDS011;10944;42.590;12.630;2023-02-10T14:25:57;20.65;;;11.50;;
21567;SDS011;10944;42.590;12.630;2023-02-10T14:28:27;19.73;;;11.88;;
21567;SDS011;10944;42.590;12.630;2023-02-10T14:31:01;19.55;;;11.30;;
21567;SDS011;10944;42.590;12.630;2023-02-10T14:33:38;19.15;;;10.88;;
21567;SDS011;10944;42.590;12.630;2023-02-10T14:36:07;22.50;;;11.70;;
21567;SDS011;10944;42.590;12.630;2023-02-10T14:38:44;19.75;;;10.82;;
21567;SDS011;10944;42.590;12.630;2023-02-10T14:41:14;17.87;;;11.07;;
21567;SDS011;10944;42.590;12.630;2023-02-10T14:43:41;20.37;;;11.33;;
21567;SDS011;10944;42.590;12.630;2023-02-10T14:46:07;18.47;;;11.50;;
21567;SDS011;10944;42.590;12.630;2023-02-10T14:48:43;18.83;;;11.35;;
21567;SDS011;10944;42.590;12.630;2023-02-10T14:51:21;20.17;;;11.77;;
21567;SDS011;10944;42.590;12.630;2023-02-10T14:53:49;20.27;;;10.97;;
21567;SDS011;10944;42.590;12.630;2023-02-10T14:56:25;21.07;;;11.43;;
21567;SDS011;10944;42.590;12.630;2023-02-10T14:58:53;21.13;;;12.10;;
21567;SDS011;10944;42.590;12.630;2023-02-10T15:01:24;21.73;;;11.43;;
21567;SDS011;10944;42.590;12.630;2023-02-10T15:03:59;20.87;;;11.93;;
21567;SDS011;10944;42.590;12.630;2023-02-10T15:06:27;19.80;;;10.90;;
21567;SDS011;10944;42.590;12.630;2023-02-10T15:09:04;20.40;;;11.10;;
21567;SDS011;10944;42.590;12.630;2023-02-10T15:11:40;20.73;;;11.32;;
21567;SDS011;10944;42.590;12.630;2023-02-10T15:15:13;19.03;;;10.57;;
21567;SDS011;10944;42.590;12.630;2023-02-10T15:18:10;19.83;;;10.40;;
21567;SDS011;10944;42.590;12.630;2023-02-10T15:20:22;18.37;;;11.03;;
21567;SDS011;10944;42.590;12.630;2023-02-10T15:30:53;19.97;;;11.17;;
21567;SDS011;10944;42.590;12.630;2023-02-10T15:33:20;20.40;;;11.70;;
21567;SDS011;10944;42.590;12.630;2023-02-10T15:41:32;21.27;;;11.77;;
21567;SDS011;10944;42.590;12.630;2023-02-10T15:46:48;20.67;;;11.23;;
21567;SDS011;10944;42.590;12.630;2023-02-10T15:49:17;21.50;;;11.40;;
21567;SDS011;10944;42.590;12.630;2023-02-10T15:51:45;20.60;;;12.47;;
21567;SDS011;10944;42.590;12.630;2023-02-10T15:54:15;25.77;;;11.70;;
21567;SDS011;10944;42.590;12.630;2023-02-10T15:56:52;22.98;;;14.07;;
21567;SDS011;10944;42.590;12.630;2023-02-10T15:59:28;24.13;;;12.97;;
21567;SDS011;10944;42.590;12.630;2023-02-10T16:01:55;19.73;;;12.13;;
21567;SDS011;10944;42.590;12.630;2023-02-10T16:04:22;20.40;;;11.30;;
21567;SDS011;10944;42.590;12.630;2023-02-10T16:06:48;19.57;;;11.70;;
21567;SDS011;10944;42.590;12.630;2023-02-10T16:09:14;20.77;;;11.70;;
21567;SDS011;10944;42.590;12.630;2023-02-10T16:11:40;19.60;;;11.33;;
21567;SDS011;10944;42.590;12.630;2023-02-10T16:14:06;21.97;;;11.83;;
21567;SDS011;10944;42.590;12.630;2023-02-10T16:16:31;21.07;;;11.80;;
21567;SDS011;10944;42.590;12.630;2023-02-10T16:18:57;21.17;;;12.00;;
21567;SDS011;10944;42.590;12.630;2023-02-10T16:21:23;23.03;;;11.87;;
21567;SDS011;10944;42.590;12.630;2023-02-10T16:23:49;26.27;;;12.63;;
21567;SDS011;10944;42.590;12.630;2023-02-10T16:26:18;20.20;;;12.20;;
21567;SDS011;10944;42.590;12.630;2023-02-10T16:28:46;19.53;;;11.53;;
21567;SDS011;10944;42.590;12.630;2023-02-10T16:31:12;20.97;;;11.50;;
21567;SDS011;10944;42.590;12.630;2023-02-10T16:33:38;18.17;;;10.97;;
21567;SDS011;10944;42.590;12.630;2023-02-10T16:36:06;19.67;;;11.57;;
21567;SDS011;10944;42.590;12.630;2023-02-10T16:38:33;21.43;;;11.00;;
21567;SDS011;10944;42.590;12.630;2023-02-10T16:40:59;22.87;;;11.27;;
21567;SDS011;10944;42.590;12.630;2023-02-10T16:43:25;19.00;;;11.10;;
21567;SDS011;10944;42.590;12.630;2023-02-10T16:45:51;18.80;;;11.07;;
21567;SDS011;10944;42.590;12.630;2023-02-10T16:48:17;18.07;;;10.77;;
21567;SDS011;10944;42.590;12.630;2023-02-10T16:50:43;18.33;;;10.10;;